EFW5BR EGJJ-EGKK
Flight info
| Callsign | EFW5BR |
|---|---|
| Flight time | 0h 38m |
| Altitude | 23000 |
| Route | ORIST L982 VASUX |
| Aircraft | A320/M-SDE3FGHIRWY/LB1 |
Departure
| Time | 2026-05-04 21:04 |
|---|---|
| Airport | Jersey Airport (EGJJ) |
Arrival
| Time | 2026-05-04 21:43 |
|---|---|
| Airport | London Gatwick Airport (EGKK) |
| Time | Latitude | Longitude | Altitude | Speed | Heading |
|---|---|---|---|---|---|
| 2026-05-04 20:33 | 49.20487 | -2.19730 | 276 ft | 0 kts | 352° |
| 2026-05-04 20:54 | 49.20482 | -2.19729 | 274 ft | 4 kts | 350° |
| 2026-05-04 20:54 | 49.20457 | -2.19717 | 277 ft | 4 kts | 319° |
| 2026-05-04 20:55 | 49.20446 | -2.19688 | 274 ft | 3 kts | 264° |
| 2026-05-04 20:55 | 49.20447 | -2.19677 | 274 ft | 0 kts | 262° |
| 2026-05-04 20:59 | 49.20446 | -2.19683 | 274 ft | 2 kts | 262° |
| 2026-05-04 21:00 | 49.20443 | -2.19712 | 273 ft | 4 kts | 261° |
| 2026-05-04 21:00 | 49.20438 | -2.19764 | 273 ft | 6 kts | 265° |
| 2026-05-04 21:00 | 49.20434 | -2.19839 | 273 ft | 8 kts | 263° |
| 2026-05-04 21:00 | 49.20464 | -2.19911 | 273 ft | 10 kts | 342° |
| 2026-05-04 21:01 | 49.20517 | -2.19985 | 274 ft | 12 kts | 288° |
| 2026-05-04 21:01 | 49.20543 | -2.20117 | 275 ft | 14 kts | 287° |
| 2026-05-04 21:01 | 49.20571 | -2.20255 | 278 ft | 14 kts | 286° |
| 2026-05-04 21:01 | 49.20601 | -2.20417 | 276 ft | 14 kts | 286° |
| 2026-05-04 21:02 | 49.20612 | -2.20478 | 276 ft | 0 kts | 286° |
| 2026-05-04 21:02 | 49.20614 | -2.20485 | 276 ft | 1 kts | 286° |
| 2026-05-04 21:02 | 49.20619 | -2.20512 | 276 ft | 5 kts | 285° |
| 2026-05-04 21:02 | 49.20626 | -2.20579 | 278 ft | 7 kts | 275° |
| 2026-05-04 21:03 | 49.20634 | -2.20663 | 280 ft | 9 kts | 292° |
| 2026-05-04 21:03 | 49.20698 | -2.20685 | 278 ft | 13 kts | 38° |
| 2026-05-04 21:03 | 49.20705 | -2.20646 | 275 ft | 8 kts | 82° |
| 2026-05-04 21:03 | 49.20741 | -2.20227 | 273 ft | 79 kts | 83° |
| 2026-05-04 21:04 | 49.20849 | -2.19067 | 280 ft | 139 kts | 80° |
| 2026-05-04 21:04 | 49.21028 | -2.17419 | 539 ft | 164 kts | 79° |
| 2026-05-04 21:04 | 49.21183 | -2.15682 | 1196 ft | 165 kts | 81° |
| 2026-05-04 21:04 | 49.21320 | -2.13934 | 1701 ft | 172 kts | 81° |
| 2026-05-04 21:05 | 49.21456 | -2.12046 | 2075 ft | 186 kts | 82° |
| 2026-05-04 21:05 | 49.21593 | -2.10000 | 2407 ft | 204 kts | 82° |
| 2026-05-04 21:05 | 49.21737 | -2.07728 | 2735 ft | 227 kts | 79° |
| 2026-05-04 21:05 | 49.22375 | -2.05415 | 3155 ft | 247 kts | 49° |
| 2026-05-04 21:06 | 49.23726 | -2.03983 | 4242 ft | 233 kts | 19° |
| 2026-05-04 21:06 | 49.25284 | -2.03588 | 4719 ft | 224 kts | 3° |
| 2026-05-04 21:06 | 49.26837 | -2.03631 | 4944 ft | 230 kts | 358° |
| 2026-05-04 21:06 | 49.28547 | -2.03766 | 5016 ft | 257 kts | 358° |
| 2026-05-04 21:07 | 49.30356 | -2.03877 | 5017 ft | 262 kts | 359° |
| 2026-05-04 21:07 | 49.32184 | -2.03925 | 5018 ft | 263 kts | 1° |
| 2026-05-04 21:07 | 49.34009 | -2.03917 | 5022 ft | 263 kts | 2° |
| 2026-05-04 21:07 | 49.35836 | -2.03870 | 5022 ft | 262 kts | 2° |
| 2026-05-04 21:08 | 49.37663 | -2.03797 | 5022 ft | 262 kts | 3° |
| 2026-05-04 21:08 | 49.39487 | -2.03711 | 5027 ft | 263 kts | 3° |
| 2026-05-04 21:08 | 49.41333 | -2.03616 | 5711 ft | 266 kts | 3° |
| 2026-05-04 21:08 | 49.43187 | -2.03516 | 6643 ft | 268 kts | 3° |
| 2026-05-04 21:09 | 49.45065 | -2.03414 | 7481 ft | 272 kts | 3° |
| 2026-05-04 21:09 | 49.46970 | -2.03314 | 8306 ft | 276 kts | 3° |
| 2026-05-04 21:09 | 49.48909 | -2.03211 | 9122 ft | 281 kts | 3° |
| 2026-05-04 21:09 | 49.50876 | -2.03108 | 9920 ft | 285 kts | 3° |
| 2026-05-04 21:10 | 49.52875 | -2.03003 | 10638 ft | 289 kts | 3° |
| 2026-05-04 21:10 | 49.54878 | -2.02898 | 11364 ft | 293 kts | 4° |
| 2026-05-04 21:10 | 49.56953 | -2.02790 | 12114 ft | 296 kts | 4° |
| 2026-05-04 21:10 | 49.59000 | -2.02684 | 12839 ft | 300 kts | 4° |
| 2026-05-04 21:11 | 49.61098 | -2.02574 | 13566 ft | 303 kts | 4° |
| 2026-05-04 21:11 | 49.63224 | -2.02464 | 14232 ft | 307 kts | 4° |
| 2026-05-04 21:11 | 49.65369 | -2.02352 | 14857 ft | 311 kts | 4° |
| 2026-05-04 21:11 | 49.67545 | -2.02239 | 15470 ft | 315 kts | 4° |
| 2026-05-04 21:12 | 49.69748 | -2.02124 | 16092 ft | 319 kts | 4° |
| 2026-05-04 21:12 | 49.71976 | -2.02003 | 16695 ft | 323 kts | 4° |
| 2026-05-04 21:12 | 49.74238 | -2.01880 | 17298 ft | 327 kts | 4° |
| 2026-05-04 21:12 | 49.76525 | -2.01751 | 17901 ft | 331 kts | 5° |
| 2026-05-04 21:13 | 49.78796 | -2.01173 | 18464 ft | 332 kts | 18° |
| 2026-05-04 21:13 | 49.80996 | -1.99859 | 18635 ft | 347 kts | 29° |
| 2026-05-04 21:13 | 49.83189 | -1.98087 | 18762 ft | 364 kts | 30° |
| 2026-05-04 21:13 | 49.85487 | -1.96219 | 18889 ft | 381 kts | 30° |
| 2026-05-04 21:14 | 49.87869 | -1.94286 | 19216 ft | 390 kts | 30° |
| 2026-05-04 21:14 | 49.90294 | -1.92326 | 19710 ft | 395 kts | 30° |
| 2026-05-04 21:14 | 49.92747 | -1.90351 | 20242 ft | 399 kts | 30° |
| 2026-05-04 21:14 | 49.95231 | -1.88351 | 20763 ft | 403 kts | 30° |
| 2026-05-04 21:15 | 49.97733 | -1.86333 | 21288 ft | 407 kts | 30° |
| 2026-05-04 21:15 | 50.00250 | -1.84302 | 21795 ft | 410 kts | 30° |
| 2026-05-04 21:15 | 50.02799 | -1.82256 | 22265 ft | 414 kts | 29° |
| 2026-05-04 21:15 | 50.05376 | -1.80210 | 22727 ft | 418 kts | 29° |
| 2026-05-04 21:16 | 50.07982 | -1.78153 | 22981 ft | 421 kts | 29° |
| 2026-05-04 21:16 | 50.10631 | -1.76063 | 23025 ft | 431 kts | 30° |
| 2026-05-04 21:16 | 50.13182 | -1.73604 | 23021 ft | 432 kts | 39° |
| 2026-05-04 21:16 | 50.15515 | -1.70662 | 23025 ft | 431 kts | 42° |
| 2026-05-04 21:17 | 50.17791 | -1.67712 | 23024 ft | 432 kts | 42° |
| 2026-05-04 21:17 | 50.20102 | -1.64712 | 23024 ft | 432 kts | 41° |
| 2026-05-04 21:17 | 50.22410 | -1.61706 | 23024 ft | 432 kts | 42° |
| 2026-05-04 21:17 | 50.24715 | -1.58702 | 23024 ft | 432 kts | 41° |
| 2026-05-04 21:18 | 50.27024 | -1.55706 | 23020 ft | 428 kts | 41° |
| 2026-05-04 21:18 | 50.29292 | -1.52775 | 23024 ft | 420 kts | 41° |
| 2026-05-04 21:18 | 50.31541 | -1.49874 | 23024 ft | 418 kts | 41° |
| 2026-05-04 21:18 | 50.33780 | -1.46977 | 23027 ft | 417 kts | 41° |
| 2026-05-04 21:19 | 50.36022 | -1.44070 | 23026 ft | 417 kts | 41° |
| 2026-05-04 21:19 | 50.38250 | -1.41163 | 23024 ft | 417 kts | 42° |
| 2026-05-04 21:19 | 50.40467 | -1.38265 | 22825 ft | 411 kts | 42° |
| 2026-05-04 21:19 | 50.42653 | -1.35406 | 22332 ft | 407 kts | 41° |
| 2026-05-04 21:20 | 50.44826 | -1.32572 | 21861 ft | 403 kts | 41° |
| 2026-05-04 21:20 | 50.46974 | -1.29769 | 21417 ft | 400 kts | 41° |
| 2026-05-04 21:20 | 50.49103 | -1.26987 | 20986 ft | 396 kts | 41° |
| 2026-05-04 21:20 | 50.51206 | -1.24231 | 20552 ft | 392 kts | 41° |
| 2026-05-04 21:21 | 50.53262 | -1.21535 | 20126 ft | 388 kts | 41° |
| 2026-05-04 21:21 | 50.55331 | -1.18819 | 19689 ft | 385 kts | 41° |
| 2026-05-04 21:21 | 50.57370 | -1.16137 | 19243 ft | 381 kts | 41° |
| 2026-05-04 21:21 | 50.59392 | -1.13477 | 18814 ft | 377 kts | 41° |
| 2026-05-04 21:22 | 50.61396 | -1.10838 | 18369 ft | 373 kts | 42° |
| 2026-05-04 21:22 | 50.63376 | -1.08229 | 17865 ft | 370 kts | 42° |
| 2026-05-04 21:22 | 50.65333 | -1.05623 | 17339 ft | 366 kts | 44° |
| 2026-05-04 21:22 | 50.67048 | -1.02697 | 16799 ft | 362 kts | 52° |
| 2026-05-04 21:23 | 50.68634 | -0.99638 | 16273 ft | 359 kts | 52° |
| 2026-05-04 21:23 | 50.70207 | -0.96597 | 15764 ft | 356 kts | 52° |
| 2026-05-04 21:23 | 50.71769 | -0.93579 | 15265 ft | 353 kts | 51° |
| 2026-05-04 21:23 | 50.73318 | -0.90588 | 14755 ft | 351 kts | 51° |
| 2026-05-04 21:24 | 50.74856 | -0.87614 | 14341 ft | 346 kts | 51° |
| 2026-05-04 21:24 | 50.76347 | -0.84725 | 14227 ft | 333 kts | 52° |
| 2026-05-04 21:24 | 50.77785 | -0.81940 | 14100 ft | 321 kts | 52° |
| 2026-05-04 21:24 | 50.79145 | -0.79305 | 13916 ft | 305 kts | 52° |
| 2026-05-04 21:25 | 50.80405 | -0.76672 | 13376 ft | 297 kts | 60° |
| 2026-05-04 21:25 | 50.81235 | -0.73748 | 13058 ft | 291 kts | 73° |
| 2026-05-04 21:25 | 50.81664 | -0.70595 | 13018 ft | 295 kts | 80° |
| 2026-05-04 21:25 | 50.82035 | -0.67401 | 13025 ft | 296 kts | 79° |
| 2026-05-04 21:26 | 50.82413 | -0.64202 | 13027 ft | 296 kts | 79° |
| 2026-05-04 21:26 | 50.82793 | -0.60996 | 13026 ft | 296 kts | 79° |
| 2026-05-04 21:26 | 50.83169 | -0.57799 | 13028 ft | 296 kts | 79° |
| 2026-05-04 21:26 | 50.83545 | -0.54591 | 13031 ft | 296 kts | 79° |
| 2026-05-04 21:27 | 50.83916 | -0.51390 | 13029 ft | 296 kts | 80° |
| 2026-05-04 21:27 | 50.84285 | -0.48182 | 13029 ft | 296 kts | 80° |
| 2026-05-04 21:27 | 50.84654 | -0.44980 | 13029 ft | 296 kts | 80° |
| 2026-05-04 21:27 | 50.85022 | -0.41779 | 12909 ft | 294 kts | 80° |
| 2026-05-04 21:28 | 50.85386 | -0.38602 | 12538 ft | 293 kts | 80° |
| 2026-05-04 21:28 | 50.85748 | -0.35436 | 12175 ft | 292 kts | 80° |
| 2026-05-04 21:28 | 50.86106 | -0.32283 | 11828 ft | 290 kts | 80° |
| 2026-05-04 21:28 | 50.86461 | -0.29148 | 11481 ft | 289 kts | 80° |
| 2026-05-04 21:29 | 50.86814 | -0.26017 | 11124 ft | 288 kts | 80° |
| 2026-05-04 21:29 | 50.87168 | -0.22896 | 10787 ft | 287 kts | 80° |
| 2026-05-04 21:29 | 50.87516 | -0.19792 | 10443 ft | 286 kts | 80° |
| 2026-05-04 21:29 | 50.87862 | -0.16694 | 10202 ft | 282 kts | 80° |
| 2026-05-04 21:30 | 50.88197 | -0.13701 | 10065 ft | 267 kts | 81° |
| 2026-05-04 21:30 | 50.88510 | -0.10911 | 10033 ft | 258 kts | 81° |
| 2026-05-04 21:30 | 50.88957 | -0.08187 | 9791 ft | 255 kts | 61° |
| 2026-05-04 21:30 | 50.90153 | -0.06193 | 9489 ft | 252 kts | 27° |
| 2026-05-04 21:31 | 50.93437 | -0.06577 | 8817 ft | 248 kts | 320° |
| 2026-05-04 21:31 | 50.94504 | -0.08691 | 8473 ft | 248 kts | 301° |
| 2026-05-04 21:31 | 50.95398 | -0.11029 | 8139 ft | 248 kts | 301° |
| 2026-05-04 21:32 | 50.96286 | -0.13370 | 7840 ft | 247 kts | 301° |
| 2026-05-04 21:32 | 50.96874 | -0.14914 | 7630 ft | 246 kts | 301° |
| 2026-05-04 21:32 | 50.97762 | -0.17233 | 7349 ft | 245 kts | 302° |
| 2026-05-04 21:32 | 50.98549 | -0.19620 | 7089 ft | 243 kts | 289° |
| 2026-05-04 21:33 | 50.98989 | -0.22210 | 7038 ft | 244 kts | 284° |
| 2026-05-04 21:33 | 50.99406 | -0.24831 | 7029 ft | 246 kts | 284° |
| 2026-05-04 21:33 | 50.99826 | -0.27463 | 7040 ft | 246 kts | 284° |
| 2026-05-04 21:33 | 51.00246 | -0.30082 | 6831 ft | 244 kts | 284° |
| 2026-05-04 21:34 | 51.00662 | -0.32682 | 6540 ft | 243 kts | 284° |
| 2026-05-04 21:34 | 51.01077 | -0.35279 | 6244 ft | 242 kts | 285° |
| 2026-05-04 21:34 | 51.01490 | -0.37868 | 5919 ft | 241 kts | 285° |
| 2026-05-04 21:34 | 51.01902 | -0.40449 | 5593 ft | 241 kts | 285° |
| 2026-05-04 21:35 | 51.02314 | -0.43032 | 5252 ft | 241 kts | 285° |
| 2026-05-04 21:35 | 51.02725 | -0.45615 | 4941 ft | 240 kts | 285° |
| 2026-05-04 21:35 | 51.03134 | -0.48184 | 4626 ft | 239 kts | 285° |
| 2026-05-04 21:35 | 51.03541 | -0.50736 | 4306 ft | 238 kts | 285° |
| 2026-05-04 21:36 | 51.04168 | -0.53134 | 3993 ft | 233 kts | 313° |
| 2026-05-04 21:36 | 51.05496 | -0.54525 | 3531 ft | 235 kts | 343° |
| 2026-05-04 21:36 | 51.07131 | -0.54828 | 3084 ft | 240 kts | 9° |
| 2026-05-04 21:36 | 51.08650 | -0.54006 | 3007 ft | 222 kts | 32° |
| 2026-05-04 21:37 | 51.09728 | -0.52497 | 2996 ft | 199 kts | 53° |
| 2026-05-04 21:37 | 51.10361 | -0.50668 | 3002 ft | 180 kts | 71° |
| 2026-05-04 21:37 | 51.10655 | -0.48780 | 3004 ft | 176 kts | 77° |
| 2026-05-04 21:37 | 51.10916 | -0.46945 | 3006 ft | 165 kts | 77° |
| 2026-05-04 21:38 | 51.11165 | -0.45185 | 3007 ft | 161 kts | 76° |
| 2026-05-04 21:38 | 51.11410 | -0.43449 | 2991 ft | 161 kts | 77° |
| 2026-05-04 21:38 | 51.11653 | -0.41718 | 2849 ft | 159 kts | 77° |
| 2026-05-04 21:38 | 51.11893 | -0.40007 | 2668 ft | 158 kts | 77° |
| 2026-05-04 21:39 | 51.12128 | -0.38335 | 2467 ft | 151 kts | 77° |
| 2026-05-04 21:39 | 51.12353 | -0.36723 | 2268 ft | 146 kts | 77° |
| 2026-05-04 21:39 | 51.12567 | -0.35196 | 2090 ft | 138 kts | 76° |
| 2026-05-04 21:39 | 51.12770 | -0.33742 | 1898 ft | 135 kts | 77° |
| 2026-05-04 21:40 | 51.12973 | -0.32287 | 1718 ft | 134 kts | 77° |
| 2026-05-04 21:40 | 51.13175 | -0.30839 | 1530 ft | 133 kts | 77° |
| 2026-05-04 21:40 | 51.13376 | -0.29399 | 1345 ft | 133 kts | 77° |
| 2026-05-04 21:40 | 51.13574 | -0.27973 | 1165 ft | 133 kts | 77° |
| 2026-05-04 21:41 | 51.13775 | -0.26530 | 979 ft | 134 kts | 77° |
| 2026-05-04 21:41 | 51.13976 | -0.25080 | 800 ft | 133 kts | 77° |
| 2026-05-04 21:41 | 51.14176 | -0.23638 | 624 ft | 134 kts | 77° |
| 2026-05-04 21:41 | 51.14377 | -0.22194 | 437 ft | 133 kts | 77° |
| 2026-05-04 21:42 | 51.14576 | -0.20748 | 251 ft | 134 kts | 78° |
| 2026-05-04 21:42 | 51.14757 | -0.19435 | 214 ft | 92 kts | 77° |
| 2026-05-04 21:42 | 51.14853 | -0.18759 | 206 ft | 54 kts | 78° |
| 2026-05-04 21:42 | 51.14935 | -0.18173 | 208 ft | 54 kts | 77° |
| 2026-05-04 21:43 | 51.15024 | -0.17866 | 209 ft | 22 kts | 54° |
| 2026-05-04 21:43 | 51.15111 | -0.17767 | 211 ft | 11 kts | 348° |
| 2026-05-04 21:43 | 51.15213 | -0.17782 | 205 ft | 18 kts | 356° |
| 2026-05-04 21:43 | 51.15278 | -0.17627 | 209 ft | 20 kts | 76° |
| 2026-05-04 21:44 | 51.15307 | -0.17386 | 208 ft | 24 kts | 94° |
| 2026-05-04 21:44 | 51.15329 | -0.17171 | 213 ft | 21 kts | 77° |
| 2026-05-04 21:44 | 51.15348 | -0.17009 | 210 ft | 11 kts | 78° |
| 2026-05-04 21:44 | 51.15368 | -0.16857 | 207 ft | 17 kts | 78° |
| 2026-05-04 21:45 | 51.15375 | -0.16809 | 214 ft | 3 kts | 76° |
| 2026-05-04 21:45 | 51.15385 | -0.16742 | 206 ft | 10 kts | 76° |
| 2026-05-04 21:45 | 51.15407 | -0.16606 | 209 ft | 16 kts | 77° |
| 2026-05-04 21:45 | 51.15414 | -0.16558 | 210 ft | 1 kts | 77° |
| 2026-05-04 21:46 | 51.15414 | -0.16527 | 210 ft | 4 kts | 98° |
| 2026-05-04 21:46 | 51.15394 | -0.16492 | 207 ft | 5 kts | 117° |
| 2026-05-04 21:46 | 51.15401 | -0.16434 | 211 ft | 4 kts | 77° |
| 2026-05-04 21:46 | 51.15404 | -0.16415 | 213 ft | 1 kts | 77° |
| 2026-05-04 21:47 | 51.15404 | -0.16411 | 212 ft | 0 kts | 77° |